Airfield :







YOU CAN JOIN US ON...

 
LOGIN :

Register | Disclaimer

   EN    FR    IT 

 









Legend :    VFR   Marginal VFR   IFR   Intensive IFR   Very Intensive IFR
Visi :
Ceiling :
>= 8 km
>= 3000ft
5 to 8 km
1000 to 3000 ft
1500m to 5 km
500 to 1000 ft
800 to 1500m
200 to 500 ft
< 800m
< 200 ft
Symbols :   Thunderstorms  Fog  Heavy snow  Heavy precipitations  Wind > 20 kt







- Airport Elevation : 266 ft
- IATA code : MHT


KMHT - Manchester

CURRENT METAR :
  • 202253Z 16005KT 3SM BR OVC004 21/20 A2947 RMK AO2 SFC VIS 5 SLP990 T02060200

EXPIRED METARs :
  • 202153Z 15004KT 2 1/2SM BR OVC004 20/19 A2948 RMK AO2 SFC VIS 6 SLP995 T02000194
  • 202053Z 16007KT 2 1/2SM BR OVC003 19/19 A2950 RMK AO2 SLP001 60001 T01940189 56025

TAF KMHT
Valid from the 20 at 23:00 until the 21 at 18:00 UTC


202239Z 2023/2118 14007KT 3SM BR VCSH OVC004
FM210400 36003KT 1SM -SHRA BR OVC003
FM210800 33004KT 5SM -SHRA BR OVC003
FM211300 34012G18KT 2SM -RA BR OVC007
KZBW FIR / North America



MET'MAP, your aeronautical weather chart ! - Copyright ORBIFLY December 2007 - Disclaimer

ORBIFLY MET'MAP TEAM :

Programming & Development : Alexandra Zaïnal
Concept & Development : Baudouin d'Aumeries
Co-Development & Prog : Marc-Olivier Méhu
Technical & hardware support : Manuel Goepfert

Contact : metmap@orbifly.com




SOURCES & CREDITS :

   NOAA